createdAt,value
2018-09-03T00:02:04.621Z,23.45
2018-09-03T00:04:35.387Z,23.50
2018-09-03T00:07:05.958Z,22.71
2018-09-03T00:09:41.709Z,23.04
2018-09-03T00:12:13.123Z,23.17
2018-09-03T00:14:43.676Z,23.23
2018-09-03T00:17:14.159Z,23.23
2018-09-03T00:19:44.489Z,23.31
2018-09-03T00:22:15.310Z,23.09
2018-09-03T00:24:45.852Z,23.03
2018-09-03T00:27:16.138Z,22.42
2018-09-03T00:29:46.702Z,22.55
2018-09-03T00:32:23.029Z,22.67
2018-09-03T00:34:58.158Z,22.26
2018-09-03T00:37:33.726Z,21.34
2018-09-03T00:40:09.346Z,21.58
2018-09-03T00:42:44.764Z,21.81
2018-09-03T00:45:20.220Z,22.16
2018-09-03T00:47:50.580Z,22.42
2018-09-03T00:50:20.873Z,21.93
2018-09-03T00:52:52.364Z,22.16
2018-09-03T00:55:22.676Z,22.36
2018-09-03T00:57:53.163Z,22.36
2018-09-03T01:00:23.689Z,22.64
2018-09-03T01:02:54.931Z,22.51
2018-09-03T01:05:25.833Z,22.34
2018-09-03T01:07:56.620Z,22.40
2018-09-03T01:10:26.963Z,22.05
2018-09-03T01:12:58.440Z,21.89
2018-09-03T01:15:31.292Z,22.33
2018-09-03T01:18:02.930Z,21.58
2018-09-03T01:20:33.600Z,21.94
2018-09-03T01:23:04.649Z,22.11
2018-09-03T01:25:34.948Z,22.23
2018-09-03T01:28:05.337Z,22.09
2018-09-03T01:30:35.893Z,21.99
2018-09-03T01:33:07.037Z,22.01
2018-09-03T01:35:37.481Z,22.05
2018-09-03T01:38:08.106Z,22.14
2018-09-03T01:40:38.688Z,22.20
2018-09-03T01:43:10.479Z,22.22
2018-09-03T01:45:40.784Z,22.21
2018-09-03T01:48:11.663Z,22.22
2018-09-03T01:50:42.354Z,22.17
2018-09-03T01:53:13.290Z,22.14
2018-09-03T01:55:43.493Z,22.06
2018-09-03T01:58:14.162Z,22.18
2018-09-03T02:00:44.549Z,22.19
2018-09-03T02:03:15.755Z,22.21
2018-09-03T02:05:46.504Z,22.25
2018-09-03T02:08:17.095Z,22.10
2018-09-03T02:10:47.355Z,22.08
2018-09-03T02:13:18.146Z,22.11
2018-09-03T02:15:48.725Z,22.20
2018-09-03T02:18:18.806Z,22.12
2018-09-03T02:20:49.196Z,22.17
2018-09-03T02:23:19.748Z,21.90
2018-09-03T02:25:50.160Z,21.86
2018-09-03T02:28:20.511Z,22.10
2018-09-03T02:30:51.047Z,22.08
2018-09-03T02:33:21.881Z,22.10
2018-09-03T02:35:52.394Z,21.85
2018-09-03T02:38:22.731Z,21.96
2018-09-03T02:40:53.152Z,21.94
2018-09-03T02:43:23.692Z,21.69
2018-09-03T02:45:54.169Z,21.51
2018-09-03T02:48:24.315Z,21.29
2018-09-03T02:50:54.606Z,21.08
2018-09-03T02:53:25.046Z,20.82
2018-09-03T02:55:55.594Z,21.29
2018-09-03T02:58:25.831Z,21.55
2018-09-03T03:00:56.265Z,21.76
2018-09-03T03:03:27.485Z,21.84
2018-09-03T03:05:57.782Z,21.82
2018-09-03T03:08:28.351Z,21.86
2018-09-03T03:10:58.885Z,21.85
2018-09-03T03:13:29.747Z,21.82
2018-09-03T03:15:59.948Z,21.27
2018-09-03T03:18:30.226Z,21.42
2018-09-03T03:21:00.731Z,21.63
2018-09-03T03:23:31.904Z,21.81
2018-09-03T03:26:02.463Z,21.52
2018-09-03T03:28:33.073Z,21.56
2018-09-03T03:31:03.610Z,21.63
2018-09-03T03:33:34.468Z,21.65
2018-09-03T03:36:05.386Z,21.61
2018-09-03T03:38:35.503Z,21.65
2018-09-03T03:41:06.044Z,21.41
2018-09-03T03:43:37.439Z,21.31
2018-09-03T03:46:08.091Z,21.36
2018-09-03T03:48:38.536Z,21.36
2018-09-03T03:51:09.048Z,21.45
2018-09-03T03:53:40.266Z,21.50
2018-09-03T03:56:11.136Z,21.52
2018-09-03T03:58:41.767Z,21.49
2018-09-03T04:01:12.169Z,21.60
2018-09-03T04:03:43.062Z,21.70
2018-09-03T04:06:14.069Z,20.96
2018-09-03T04:08:44.465Z,20.54
2018-09-03T04:11:14.893Z,20.64
2018-09-03T04:13:45.994Z,20.44
2018-09-03T04:16:16.506Z,20.83
2018-09-03T04:18:47.144Z,20.53
2018-09-03T04:21:17.572Z,20.30
2018-09-03T04:23:47.830Z,20.59
2018-09-03T04:26:18.363Z,20.26
2018-09-03T04:28:48.732Z,20.19
2018-09-03T04:31:19.536Z,20.86
2018-09-03T04:33:51.012Z,20.93
2018-09-03T04:36:21.637Z,20.84
2018-09-03T04:38:52.351Z,21.03
2018-09-03T04:41:23.007Z,20.95
2018-09-03T04:43:54.350Z,20.62
2018-09-03T04:46:24.676Z,21.19
2018-09-03T04:48:55.286Z,21.42
2018-09-03T04:51:25.779Z,21.63
2018-09-03T04:53:57.485Z,21.65
2018-09-03T04:56:28.523Z,21.85
2018-09-03T04:58:59.247Z,22.07
2018-09-03T05:01:29.910Z,21.98
2018-09-03T05:04:00.181Z,22.34
2018-09-03T05:06:30.983Z,22.53
2018-09-03T05:09:01.107Z,22.48
2018-09-03T05:11:31.359Z,22.40
2018-09-03T05:14:02.142Z,22.09
2018-09-03T05:16:32.430Z,21.25
2018-09-03T05:19:03.119Z,21.29
2018-09-03T05:21:33.791Z,21.96
2018-09-03T05:24:05.003Z,22.42
2018-09-03T05:26:35.508Z,22.56
2018-09-03T05:29:05.847Z,22.47
2018-09-03T05:31:36.312Z,22.45
2018-09-03T05:34:06.866Z,21.72
2018-09-03T05:36:37.333Z,21.87
2018-09-03T05:39:10.319Z,22.22
2018-09-03T05:41:40.474Z,22.23
2018-09-03T05:44:11.835Z,22.08
2018-09-03T05:46:42.456Z,21.58
2018-09-03T05:49:13.186Z,21.29
2018-09-03T05:51:43.640Z,20.75
2018-09-03T05:54:14.302Z,20.60
2018-09-03T05:56:45.096Z,20.90
2018-09-03T05:59:15.488Z,21.08
2018-09-03T06:01:46.122Z,21.69
2018-09-03T06:04:17.088Z,22.51
2018-09-03T06:06:47.809Z,22.93
2018-09-03T06:09:18.455Z,23.69
2018-09-03T06:11:48.663Z,24.43
2018-09-03T06:14:19.629Z,23.96
2018-09-03T06:16:50.377Z,24.11
2018-09-03T06:19:20.851Z,24.46
2018-09-03T06:21:51.400Z,25.07
2018-09-03T06:24:22.319Z,25.35
2018-09-03T06:26:52.508Z,25.18
2018-09-03T06:29:22.882Z,24.93
2018-09-03T06:31:53.241Z,25.62
2018-09-03T06:34:23.698Z,25.70
2018-09-03T06:36:53.461Z,25.98
2018-09-03T06:39:23.380Z,26.25
2018-09-03T06:41:53.139Z,26.71
2018-09-03T06:44:22.977Z,26.28
2018-09-03T06:46:52.807Z,26.28
2018-09-03T06:49:22.717Z,27.00
2018-09-03T06:51:52.546Z,26.54
2018-09-03T06:54:22.454Z,26.82
2018-09-03T06:56:52.292Z,27.28
2018-09-03T06:59:22.346Z,28.08
2018-09-03T07:01:52.080Z,28.48
2018-09-03T07:04:21.705Z,28.14
2018-09-03T07:06:52.697Z,28.63
2018-09-03T07:09:23.027Z,28.37
2018-09-03T07:11:53.757Z,28.34
2018-09-03T07:14:24.551Z,28.34
2018-09-03T07:16:54.791Z,27.42
2018-09-03T07:19:24.642Z,27.16
2018-09-03T07:21:54.591Z,27.36
2018-09-03T07:24:25.296Z,27.53
2018-09-03T07:26:55.158Z,27.67
2018-09-03T07:29:25.005Z,28.70
2018-09-03T07:31:55.606Z,29.38
2018-09-03T07:34:26.812Z,28.94
2018-09-03T07:36:57.254Z,29.46
2018-09-03T07:39:27.830Z,30.32
2018-09-03T07:41:58.400Z,31.46
2018-09-03T07:44:28.918Z,31.13
2018-09-03T07:46:59.388Z,31.03
2018-09-03T07:49:30.119Z,30.09
2018-09-03T08:03:16.534Z,31.07
2018-09-03T08:05:47.340Z,31.70
2018-09-03T08:08:17.883Z,32.26
2018-09-03T08:10:48.502Z,32.33
2018-09-03T08:13:24.360Z,32.39
2018-09-03T08:15:54.551Z,32.87
2018-09-03T08:18:24.876Z,33.96
2018-09-03T08:20:55.723Z,33.45
2018-09-03T08:23:26.062Z,34.24
2018-09-03T08:25:56.548Z,33.69
2018-09-03T08:28:27.255Z,33.57
2018-09-03T08:30:58.326Z,34.07
2018-09-03T08:33:28.945Z,34.59
2018-09-03T08:35:59.518Z,34.16
2018-09-03T08:38:29.959Z,34.35
2018-09-03T08:41:01.616Z,34.70
2018-09-03T08:43:32.139Z,34.37
2018-09-03T08:46:02.673Z,34.73
2018-09-03T08:48:33.515Z,35.76
2018-09-03T08:51:04.806Z,35.08
2018-09-03T08:53:35.453Z,35.59
2018-09-03T08:56:06.010Z,35.55
2018-09-03T08:58:36.860Z,35.19
2018-09-03T09:01:07.794Z,35.44
2018-09-03T09:03:41.519Z,36.54
2018-09-03T09:06:12.399Z,36.20
2018-09-03T09:08:42.594Z,36.40
2018-09-03T09:11:13.839Z,36.33
2018-09-03T09:13:44.383Z,37.20
2018-09-03T09:16:15.130Z,36.43
2018-09-03T09:18:45.649Z,36.52
2018-09-03T09:21:16.599Z,36.28
2018-09-03T09:23:47.204Z,37.47
2018-09-03T09:26:17.766Z,37.01
2018-09-03T09:28:48.340Z,37.57
2018-09-03T09:31:19.936Z,37.78
2018-09-03T09:33:50.649Z,37.19
2018-09-03T09:36:20.971Z,37.65
2018-09-03T09:38:51.462Z,38.37
2018-09-03T09:41:22.950Z,37.88
2018-09-03T09:43:53.600Z,38.25
2018-09-03T09:46:23.829Z,38.63
2018-09-03T09:48:54.451Z,39.08
2018-09-03T09:51:28.806Z,38.58
2018-09-03T09:53:59.454Z,38.63
2018-09-03T09:56:29.947Z,38.74
2018-09-03T09:59:00.557Z,39.08
2018-09-03T10:01:37.536Z,39.39
2018-09-03T10:04:08.667Z,40.82
2018-09-03T10:06:39.082Z,39.72
2018-09-03T10:09:09.851Z,39.92
2018-09-03T10:11:40.742Z,39.89
2018-09-03T10:14:11.493Z,38.09
2018-09-03T10:16:42.240Z,38.20
2018-09-03T10:19:12.844Z,39.23
2018-09-03T10:21:44.109Z,39.20
2018-09-03T10:24:14.419Z,38.06
2018-09-03T10:26:44.878Z,37.99
2018-09-03T10:29:15.568Z,37.98
2018-09-03T10:31:46.102Z,37.58
2018-09-03T10:34:16.652Z,37.89
2018-09-03T10:36:47.154Z,38.28
2018-09-03T10:39:17.690Z,38.93
2018-09-03T10:41:48.415Z,39.25
2018-09-03T10:44:18.911Z,38.92
2018-09-03T10:46:50.591Z,39.08
2018-09-03T10:49:21.177Z,39.73
2018-09-03T10:51:52.790Z,39.88
2018-09-03T10:54:23.327Z,39.65
2018-09-03T10:56:53.847Z,39.94
2018-09-03T10:59:24.083Z,39.15
2018-09-03T11:01:55.505Z,37.21
2018-09-03T11:04:26.321Z,36.55
2018-09-03T11:06:56.979Z,36.11
2018-09-03T11:09:27.589Z,37.50
2018-09-03T11:11:59.373Z,37.63
2018-09-03T11:14:29.875Z,38.35
2018-09-03T11:17:00.423Z,38.65
2018-09-03T11:19:33.399Z,38.68
2018-09-03T11:22:05.064Z,39.63
2018-09-03T11:24:35.579Z,38.76
2018-09-03T11:27:06.367Z,38.88
2018-09-03T11:29:36.940Z,39.09
2018-09-03T11:32:08.853Z,38.99
2018-09-03T11:34:39.872Z,39.21
2018-09-03T11:37:10.567Z,39.24
2018-09-03T11:39:41.231Z,38.13
2018-09-03T11:42:12.962Z,39.00
2018-09-03T11:44:43.647Z,39.47
2018-09-03T11:47:14.331Z,39.20
2018-09-03T11:49:45.095Z,39.25
2018-09-03T11:52:16.355Z,38.59
2018-09-03T11:54:46.875Z,39.04
2018-09-03T11:57:17.285Z,39.30
2018-09-03T11:59:47.598Z,37.06
2018-09-03T12:02:18.530Z,35.90
2018-09-03T12:04:49.117Z,35.71
2018-09-03T12:07:19.410Z,36.19
2018-09-03T12:09:49.873Z,34.85
2018-09-03T12:12:20.363Z,34.95
2018-09-03T12:14:54.244Z,34.32
2018-09-03T12:17:24.857Z,34.35
2018-09-03T12:19:55.443Z,34.60
2018-09-03T12:22:26.126Z,34.93
2018-09-03T12:24:56.688Z,35.93
2018-09-03T12:27:27.373Z,36.52
2018-09-03T12:29:58.341Z,37.07
2018-09-03T12:32:29.777Z,36.41
2018-09-03T12:35:00.098Z,35.80
2018-09-03T12:37:30.597Z,35.51
2018-09-03T12:40:00.837Z,35.53
2018-09-03T12:42:31.435Z,33.94
2018-09-03T12:45:01.950Z,33.78
2018-09-03T12:47:32.403Z,33.43
2018-09-03T12:50:03.033Z,34.31
2018-09-03T12:52:34.550Z,35.02
2018-09-03T12:55:05.271Z,35.70
2018-09-03T12:57:36.094Z,35.48
2018-09-03T13:00:06.794Z,35.44
2018-09-03T13:02:39.414Z,36.17
2018-09-03T13:05:08.193Z,36.49
2018-09-03T13:07:38.639Z,35.92
2018-09-03T13:10:09.046Z,36.70
2018-09-03T13:12:40.967Z,37.32
2018-09-03T13:15:11.942Z,37.69
2018-09-03T13:17:42.452Z,37.85
2018-09-03T13:20:13.371Z,37.08
2018-09-03T13:22:44.910Z,37.27
2018-09-03T13:25:15.402Z,38.26
2018-09-03T13:27:45.820Z,38.51
2018-09-03T13:30:16.347Z,38.25
2018-09-03T13:32:47.539Z,38.43
2018-09-03T13:35:18.030Z,38.40
2018-09-03T13:37:48.255Z,38.43
2018-09-03T13:40:18.902Z,38.52
2018-09-03T13:42:50.721Z,38.13
2018-09-03T13:45:21.243Z,38.13
2018-09-03T13:47:51.761Z,38.37
2018-09-03T13:50:22.534Z,37.63
2018-09-03T13:52:53.251Z,37.92
2018-09-03T13:55:23.680Z,37.58
2018-09-03T13:57:54.296Z,35.88
2018-09-03T14:00:25.045Z,36.45
2018-09-03T14:02:55.449Z,36.67
2018-09-03T14:05:26.261Z,36.83
2018-09-03T14:07:56.670Z,36.55
2018-09-03T14:10:27.365Z,36.50
2018-09-03T14:12:58.376Z,36.16
2018-09-03T14:15:29.142Z,35.87
2018-09-03T14:17:59.579Z,35.30
2018-09-03T14:20:30.239Z,34.38
2018-09-03T14:23:01.763Z,35.00
2018-09-03T14:25:32.337Z,35.00
2018-09-03T14:28:02.773Z,35.21
2018-09-03T14:30:33.439Z,34.54
2018-09-03T14:33:05.013Z,33.90
2018-09-03T14:35:35.718Z,34.20
2018-09-03T14:38:06.330Z,34.45
2018-09-03T14:40:36.851Z,34.56
2018-09-03T14:43:07.650Z,34.07
2018-09-03T14:45:37.942Z,33.59
2018-09-03T14:48:08.714Z,33.71
2018-09-03T14:50:39.185Z,33.98
2018-09-03T14:53:10.226Z,33.58
2018-09-03T14:55:40.384Z,33.18
2018-09-03T14:58:10.854Z,33.75
2018-09-03T15:00:41.289Z,33.51
2018-09-03T15:03:11.854Z,33.80
2018-09-03T15:05:42.850Z,33.38
2018-09-03T15:08:13.585Z,32.91
2018-09-03T15:10:44.018Z,32.80
2018-09-03T15:13:14.643Z,32.58
2018-09-03T15:15:44.927Z,32.91
2018-09-03T15:18:15.362Z,32.90
2018-09-03T15:20:45.907Z,32.62
2018-09-03T15:23:16.315Z,32.46
2018-09-03T15:25:46.017Z,32.30
2018-09-03T15:28:15.970Z,32.63
2018-09-03T15:30:45.882Z,32.69
2018-09-03T15:33:15.716Z,32.28
2018-09-03T15:35:45.626Z,32.32
2018-09-03T15:38:15.396Z,32.58
2018-09-03T15:40:45.036Z,32.65
2018-09-03T15:43:14.817Z,32.22
2018-09-03T15:45:44.590Z,31.83
2018-09-03T15:48:14.410Z,31.96
2018-09-03T15:50:44.444Z,31.75
2018-09-03T15:53:14.329Z,31.77
2018-09-03T15:55:44.213Z,31.51
2018-09-03T15:58:14.103Z,31.27
2018-09-03T16:00:43.838Z,31.60
2018-09-03T16:03:13.622Z,31.12
2018-09-03T16:05:43.519Z,30.99
2018-09-03T16:08:13.625Z,30.94
2018-09-03T16:10:43.513Z,30.61
2018-09-03T16:13:13.452Z,30.52
2018-09-03T16:15:43.368Z,30.70
2018-09-03T16:18:13.491Z,30.54
2018-09-03T16:20:43.411Z,30.25
2018-09-03T16:23:13.380Z,30.10
2018-09-03T16:25:43.265Z,29.99
2018-09-03T16:28:13.091Z,30.10
2018-09-03T16:30:42.858Z,30.14
2018-09-03T16:33:12.680Z,29.93
2018-09-03T16:35:42.649Z,29.65
2018-09-03T16:38:12.528Z,29.82
2018-09-03T16:40:42.379Z,29.73
2018-09-03T16:43:12.253Z,29.35
2018-09-03T16:45:42.153Z,28.96
2018-09-03T16:48:12.130Z,28.96
2018-09-03T16:50:41.907Z,29.02
2018-09-03T16:53:11.743Z,29.20
2018-09-03T16:55:41.522Z,29.54
2018-09-03T16:58:11.420Z,29.10
2018-09-03T17:00:41.309Z,29.04
2018-09-03T17:03:11.172Z,28.97
2018-09-03T17:05:40.956Z,29.34
2018-09-03T17:08:11.034Z,29.39
2018-09-03T17:10:41.259Z,29.46
2018-09-03T17:13:11.084Z,28.97
2018-09-03T17:15:41.155Z,28.80
2018-09-03T17:18:11.085Z,28.44
2018-09-03T17:20:40.953Z,28.46
2018-09-03T17:23:10.652Z,28.38
2018-09-03T17:25:40.403Z,28.46
2018-09-03T17:28:10.154Z,28.50
2018-09-03T17:30:40.051Z,28.48
2018-09-03T17:33:09.873Z,28.54
2018-09-03T17:35:39.791Z,28.70
2018-09-03T17:38:09.644Z,28.68
2018-09-03T17:40:39.393Z,28.58
2018-09-03T17:43:09.223Z,28.55
2018-09-03T17:45:39.018Z,28.33
2018-09-03T17:48:08.966Z,27.95
2018-09-03T17:50:38.877Z,27.86
2018-09-03T17:53:08.734Z,27.84
2018-09-03T17:55:38.507Z,27.98
2018-09-03T17:58:08.354Z,27.98
2018-09-03T18:00:38.146Z,27.66
2018-09-03T18:03:08.089Z,27.18
2018-09-03T18:05:38.930Z,27.19
2018-09-03T18:08:09.255Z,27.33
2018-09-03T18:10:39.126Z,27.38
2018-09-03T18:13:09.851Z,27.13
2018-09-03T18:15:39.748Z,27.01
2018-09-03T18:18:09.449Z,26.63
2018-09-03T18:20:39.191Z,26.91
2018-09-03T18:23:08.950Z,26.87
2018-09-03T18:25:38.798Z,27.08
2018-09-03T18:28:08.556Z,27.08
2018-09-03T18:30:38.349Z,27.16
2018-09-03T18:33:08.251Z,26.86
2018-09-03T18:35:38.190Z,26.72
2018-09-03T18:38:08.015Z,26.84
2018-09-03T18:40:37.738Z,26.94
2018-09-03T18:43:07.565Z,26.71
2018-09-03T18:45:37.346Z,26.87
2018-09-03T18:48:07.455Z,26.95
2018-09-03T18:50:37.357Z,26.81
2018-09-03T18:53:07.403Z,26.70
2018-09-03T18:55:37.296Z,26.72
2018-09-03T18:58:07.105Z,26.63
2018-09-03T19:00:36.926Z,26.82
2018-09-03T19:03:06.644Z,26.78
2018-09-03T19:05:36.695Z,26.66
2018-09-03T19:08:06.978Z,26.62
2018-09-03T19:10:36.798Z,26.05
2018-09-03T19:13:06.601Z,25.84
2018-09-03T19:15:36.569Z,26.20
2018-09-03T19:18:06.322Z,26.28
2018-09-03T19:20:36.223Z,26.33
2018-09-03T19:23:06.036Z,26.42
2018-09-03T19:25:35.829Z,26.37
2018-09-03T19:28:05.875Z,26.31
2018-09-03T19:30:35.675Z,26.30
2018-09-03T19:33:05.624Z,25.69
2018-09-03T19:35:35.336Z,24.89
2018-09-03T19:38:05.276Z,25.19
2018-09-03T19:40:35.437Z,25.52
2018-09-03T19:43:05.433Z,25.79
2018-09-03T19:45:35.184Z,25.41
2018-09-03T19:48:05.106Z,24.88
2018-09-03T19:50:34.956Z,25.10
2018-09-03T19:53:04.772Z,25.41
2018-09-03T19:55:34.530Z,25.39
2018-09-03T19:58:04.354Z,25.56
2018-09-03T20:00:34.244Z,25.47
2018-09-03T20:03:04.082Z,25.08
2018-09-03T20:05:34.049Z,25.20
2018-09-03T20:08:03.814Z,25.45
2018-09-03T20:10:33.785Z,25.52
2018-09-03T20:13:03.605Z,25.08
2018-09-03T20:15:33.566Z,25.33
2018-09-03T20:18:03.528Z,25.57
2018-09-03T20:20:33.402Z,25.65
2018-09-03T20:23:03.162Z,25.67
2018-09-03T20:25:33.106Z,25.52
2018-09-03T20:28:02.883Z,24.59
2018-09-03T20:30:32.772Z,24.81
2018-09-03T20:33:02.601Z,24.59
2018-09-03T20:35:32.427Z,24.58
2018-09-03T20:38:02.207Z,25.03
2018-09-03T20:40:32.034Z,25.26
2018-09-03T20:43:01.958Z,25.37
2018-09-03T20:45:31.801Z,25.45
2018-09-03T20:48:01.746Z,25.47
2018-09-03T20:50:31.525Z,25.47
2018-09-03T20:53:01.260Z,25.43
2018-09-03T20:55:31.305Z,25.44
2018-09-03T20:58:01.156Z,25.35
2018-09-03T21:00:30.977Z,25.23
2018-09-03T21:03:00.831Z,25.22
2018-09-03T21:05:30.661Z,25.14
2018-09-03T21:08:00.411Z,25.11
2018-09-03T21:10:30.175Z,25.10
2018-09-03T21:13:00.146Z,25.02
2018-09-03T21:15:29.903Z,24.60
2018-09-03T21:17:59.711Z,24.67
2018-09-03T21:20:29.888Z,24.91
2018-09-03T21:22:59.611Z,24.94
2018-09-03T21:25:29.300Z,24.29
2018-09-03T21:27:59.149Z,24.25
2018-09-03T21:30:28.774Z,24.43
2018-09-03T21:32:58.509Z,24.11
2018-09-03T21:35:28.349Z,24.44
2018-09-03T21:37:58.380Z,24.58
2018-09-03T21:40:28.126Z,24.62
2018-09-03T21:42:57.880Z,24.69
2018-09-03T21:45:27.655Z,24.76
2018-09-03T21:47:57.402Z,24.78
2018-09-03T21:50:27.156Z,24.81
2018-09-03T21:52:56.913Z,24.59
2018-09-03T21:55:26.839Z,24.66
2018-09-03T21:57:56.728Z,24.59
2018-09-03T22:00:26.602Z,24.43
2018-09-03T22:02:56.299Z,24.60
2018-09-03T22:05:26.007Z,24.78
2018-09-03T22:07:55.683Z,24.83
2018-09-03T22:10:25.580Z,24.87
2018-09-03T22:12:55.467Z,24.87
2018-09-03T22:15:25.298Z,24.85
2018-09-03T22:17:55.196Z,23.85
2018-09-03T22:20:24.800Z,23.97
2018-09-03T22:22:54.703Z,24.28
2018-09-03T22:25:24.666Z,24.45
2018-09-03T22:27:54.493Z,24.54
2018-09-03T22:30:24.425Z,24.14
2018-09-03T22:32:54.313Z,24.43
2018-09-03T22:35:24.101Z,23.96
2018-09-03T22:37:53.992Z,24.18
2018-09-03T22:40:24.007Z,24.14
2018-09-03T22:42:53.734Z,23.49
2018-09-03T22:45:23.419Z,23.92
2018-09-03T22:47:53.183Z,24.26
2018-09-03T22:50:23.022Z,24.26
2018-09-03T22:52:52.902Z,24.30
2018-09-03T22:55:22.802Z,24.26
2018-09-03T22:57:52.552Z,23.95
2018-09-03T23:00:22.303Z,23.59
2018-09-03T23:02:51.991Z,23.92
2018-09-03T23:05:21.780Z,23.60
2018-09-03T23:07:51.587Z,23.98
2018-09-03T23:10:21.246Z,24.05
2018-09-03T23:12:51.150Z,23.17
2018-09-03T23:15:21.002Z,22.64
2018-09-03T23:17:50.711Z,22.88
2018-09-03T23:20:20.563Z,22.75
2018-09-03T23:22:50.431Z,23.23
2018-09-03T23:25:20.562Z,23.10
2018-09-03T23:27:50.340Z,23.44
2018-09-03T23:30:20.421Z,23.75
2018-09-03T23:32:50.316Z,22.60
2018-09-03T23:35:20.138Z,22.64
2018-09-03T23:37:49.912Z,23.00
2018-09-03T23:40:19.632Z,23.46
2018-09-03T23:42:49.455Z,23.77
2018-09-03T23:45:19.167Z,23.79
2018-09-03T23:47:49.317Z,24.06
2018-09-03T23:50:19.280Z,24.08
2018-09-03T23:52:49.118Z,24.09
2018-09-03T23:55:18.812Z,24.12
2018-09-03T23:57:48.930Z,24.13
